Time;durP1;ratioP1;P1;durP2;ratioP2;P2;SDS_P1;SDS_P2;PMS_P1;PMS_P2;Temp;Humidity;BMP_temperature;BMP_pressure;BME280_temperature;BME280_humidity;BME280_pressure;Samples;Min_cycle;Max_cycle;Signal;HPM_P1;HPM_P2
2023/05/03 00:02:04;;;;;;;8.70;4.50;;;10.20;99.90;;;;;;5132564;27;20528;-72
2023/05/03 00:04:30;;;;;;;7.82;4.70;;;10.10;99.90;;;;;;5131631;27;20019;-73
2023/05/03 00:06:56;;;;;;;9.35;4.65;;;10.00;99.90;;;;;;5127276;27;20015;-72
2023/05/03 00:09:22;;;;;;;10.75;4.53;;;10.00;99.90;;;;;;5114148;27;20030;-72
2023/05/03 00:11:48;;;;;;;12.60;5.38;;;10.10;99.90;;;;;;5116459;27;20019;-72
2023/05/03 00:14:14;;;;;;;10.45;4.63;;;10.00;99.90;;;;;;5114562;27;20066;-72
2023/05/03 00:16:40;;;;;;;7.68;5.18;;;10.00;99.90;;;;;;5117959;28;20020;-73
2023/05/03 00:19:06;;;;;;;6.47;5.00;;;9.90;99.90;;;;;;5122018;28;20051;-72
2023/05/03 00:21:32;;;;;;;10.70;4.53;;;9.90;99.90;;;;;;5128908;28;20096;-72
2023/05/03 00:23:57;;;;;;;9.32;4.78;;;9.90;99.90;;;;;;5131995;27;20072;-73
2023/05/03 00:26:23;;;;;;;12.05;5.13;;;9.90;99.90;;;;;;5132320;27;20083;-72
2023/05/03 00:28:49;;;;;;;9.32;5.30;;;9.90;99.90;;;;;;5132796;27;20527;-72
2023/05/03 00:31:14;;;;;;;7.40;4.72;;;9.80;99.90;;;;;;5132780;27;20490;-73
2023/05/03 00:33:40;;;;;;;9.13;5.10;;;9.80;99.90;;;;;;5132504;27;20070;-72
2023/05/03 00:36:10;;;;;;;9.82;5.32;;;9.70;99.90;;;;;;5128383;27;20046;-73
2023/05/03 00:38:36;;;;;;;11.23;5.00;;;9.70;99.90;;;;;;5121927;27;20399;-73
2023/05/03 00:41:02;;;;;;;7.93;5.05;;;9.70;99.90;;;;;;5132600;27;20027;-72
2023/05/03 00:43:28;;;;;;;11.52;5.30;;;9.70;99.90;;;;;;5130821;27;20507;-72
2023/05/03 00:45:54;;;;;;;11.60;5.50;;;9.60;99.90;;;;;;5131765;27;20024;-72
2023/05/03 00:48:20;;;;;;;15.90;5.43;;;9.60;99.90;;;;;;5132325;27;20448;-73
2023/05/03 00:50:47;;;;;;;9.65;4.82;;;9.50;99.90;;;;;;5131711;28;20023;-72
2023/05/03 00:53:13;;;;;;;10.82;5.25;;;9.50;99.90;;;;;;5131829;27;20031;-72
2023/05/03 00:55:40;;;;;;;8.38;6.18;;;9.50;99.90;;;;;;5131995;27;20099;-72
2023/05/03 00:58:06;;;;;;;9.38;5.15;;;9.40;99.90;;;;;;5131893;27;20023;-72
2023/05/03 01:00:32;;;;;;;10.43;5.53;;;9.40;99.90;;;;;;5131326;27;20031;-73
2023/05/03 01:02:58;;;;;;;8.63;5.50;;;9.30;99.90;;;;;;5123835;28;20388;-72
2023/05/03 01:05:27;;;;;;;10.95;5.95;;;9.20;99.90;;;;;;5131592;27;20015;-72
2023/05/03 01:08:04;;;;;;;7.60;5.68;;;9.20;99.90;;;;;;5135830;27;20027;-72
2023/05/03 01:10:30;;;;;;;10.13;5.75;;;9.30;99.90;;;;;;5135383;27;20101;-72
2023/05/03 01:12:59;;;;;;;11.45;5.30;;;9.20;99.90;;;;;;5131853;27;20074;-73
2023/05/03 01:15:40;;;;;;;8.50;5.50;;;9.20;99.90;;;;;;5114867;27;20067;-73
2023/05/03 01:18:11;;;;;;;11.35;5.45;;;9.20;99.90;;;;;;5120388;27;20039;-72
2023/05/03 01:20:39;;;;;;;10.43;5.53;;;9.20;99.90;;;;;;5125279;27;20068;-73
2023/05/03 01:23:29;;;;;;;10.07;6.20;;;9.10;99.90;;;;;;5128007;27;20015;-72
2023/05/03 01:25:55;;;;;;;10.60;5.68;;;9.10;99.90;;;;;;5132974;27;20023;-72
2023/05/03 01:28:21;;;;;;;10.60;5.43;;;9.00;99.90;;;;;;5126084;27;20066;-73
2023/05/03 01:30:50;;;;;;;10.18;5.43;;;9.00;99.90;;;;;;5124186;27;20059;-72
2023/05/03 01:33:34;;;;;;;7.32;5.35;;;9.00;99.90;;;;;;5135748;27;20026;-72
2023/05/03 01:36:10;;;;;;;11.40;5.40;;;9.00;99.90;;;;;;5122413;27;20515;-73
2023/05/03 01:38:37;;;;;;;6.88;5.80;;;9.00;99.90;;;;;;5130529;27;20019;-72
2023/05/03 01:41:09;;;;;;;9.07;5.60;;;8.90;99.90;;;;;;5134249;27;20123;-72
2023/05/03 01:43:35;;;;;;;14.77;5.72;;;8.90;99.90;;;;;;5115651;27;20027;-73
2023/05/03 01:46:01;;;;;;;12.40;5.85;;;8.70;99.90;;;;;;5130062;27;20015;-72
2023/05/03 01:48:27;;;;;;;9.07;5.43;;;8.70;99.90;;;;;;5135133;27;20031;-72
2023/05/03 01:50:52;;;;;;;11.35;5.80;;;8.70;99.90;;;;;;5135749;27;20015;-72
2023/05/03 01:53:19;;;;;;;10.70;6.53;;;8.70;99.90;;;;;;5126822;27;20034;-72
2023/05/03 01:55:44;;;;;;;9.38;5.85;;;8.70;99.90;;;;;;5135300;27;20055;-72
2023/05/03 01:58:11;;;;;;;14.13;6.50;;;8.70;99.90;;;;;;5134616;27;20065;-72
2023/05/03 02:00:37;;;;;;;8.73;5.40;;;8.70;99.90;;;;;;5134878;27;20600;-72
2023/05/03 02:03:03;;;;;;;9.10;6.22;;;8.70;99.90;;;;;;5135216;27;20023;-72
2023/05/03 02:05:29;;;;;;;11.45;6.30;;;8.70;99.90;;;;;;5134562;27;20183;-73
2023/05/03 02:07:54;;;;;;;10.20;5.68;;;8.70;99.90;;;;;;5134209;27;20019;-72
2023/05/03 02:10:20;;;;;;;12.75;6.28;;;8.60;99.90;;;;;;5133298;27;20020;-72
2023/05/03 02:12:46;;;;;;;8.23;5.53;;;8.60;99.90;;;;;;5134357;27;20460;-72
2023/05/03 02:15:12;;;;;;;8.00;5.30;;;8.60;99.90;;;;;;5134474;27;20361;-72
2023/05/03 02:17:39;;;;;;;12.00;6.53;;;8.50;99.90;;;;;;5133658;27;20015;-72
2023/05/03 02:20:05;;;;;;;12.82;6.47;;;8.50;99.90;;;;;;5132311;27;20083;-73
2023/05/03 02:22:32;;;;;;;10.75;6.47;;;8.50;99.90;;;;;;5122333;27;20360;-72
2023/05/03 02:24:58;;;;;;;11.18;6.43;;;8.40;99.90;;;;;;5134505;27;20027;-73
2023/05/03 02:27:24;;;;;;;11.75;6.55;;;8.40;99.90;;;;;;5117536;27;20027;-72
2023/05/03 02:29:49;;;;;;;8.00;5.68;;;8.40;99.90;;;;;;5130066;27;20431;-73
2023/05/03 02:32:15;;;;;;;10.65;6.50;;;8.30;99.90;;;;;;5133777;27;20026;-72
2023/05/03 02:34:47;;;;;;;11.00;6.10;;;8.30;99.90;;;;;;5134188;27;20039;-72
2023/05/03 02:37:13;;;;;;;8.43;5.90;;;8.30;99.90;;;;;;5134113;27;20020;-72
2023/05/03 02:39:39;;;;;;;14.10;6.05;;;8.30;99.90;;;;;;5131967;27;20135;-72
2023/05/03 02:42:05;;;;;;;8.57;6.03;;;8.30;99.90;;;;;;5124118;27;20015;-72
2023/05/03 02:44:31;;;;;;;10.93;6.32;;;8.20;99.90;;;;;;5134720;27;20053;-72
2023/05/03 02:46:56;;;;;;;12.25;6.53;;;8.20;99.90;;;;;;5134545;27;20494;-73
2023/05/03 02:49:22;;;;;;;11.73;5.85;;;8.10;99.90;;;;;;5133651;27;20114;-73
2023/05/03 02:51:48;;;;;;;12.55;6.07;;;8.10;99.90;;;;;;5133504;27;20058;-73
2023/05/03 02:54:13;;;;;;;8.32;6.00;;;8.00;99.90;;;;;;5130826;27;20036;-73
2023/05/03 02:56:39;;;;;;;11.35;6.60;;;8.00;99.90;;;;;;5134542;27;20060;-72
2023/05/03 02:59:05;;;;;;;11.32;6.60;;;8.10;99.90;;;;;;5133313;27;20030;-72
2023/05/03 03:01:32;;;;;;;10.00;6.95;;;8.00;99.90;;;;;;5134191;27;20173;-72
2023/05/03 03:03:58;;;;;;;7.85;5.68;;;8.10;99.90;;;;;;5115072;27;20068;-73
2023/05/03 03:06:24;;;;;;;13.00;6.13;;;8.00;99.90;;;;;;5113252;28;20027;-72
2023/05/03 03:08:50;;;;;;;10.07;6.68;;;8.10;99.90;;;;;;5123302;27;20490;-72
2023/05/03 03:11:16;;;;;;;10.68;7.72;;;8.10;99.90;;;;;;5127907;27;20027;-72
2023/05/03 03:13:42;;;;;;;11.68;6.82;;;8.00;99.90;;;;;;5130195;27;20031;-73
2023/05/03 03:16:08;;;;;;;10.68;6.63;;;8.00;99.90;;;;;;5118636;27;20031;-72
2023/05/03 03:18:35;;;;;;;14.20;7.20;;;8.00;99.90;;;;;;5133563;27;20020;-73
2023/05/03 03:21:01;;;;;;;10.02;6.85;;;8.00;99.90;;;;;;5133212;27;20075;-72
2023/05/03 03:23:27;;;;;;;15.32;7.30;;;8.00;99.90;;;;;;5133108;27;20106;-73
2023/05/03 03:25:52;;;;;;;11.98;6.70;;;8.00;99.90;;;;;;5132802;27;20135;-72
2023/05/03 03:28:18;;;;;;;8.70;6.20;;;8.10;99.90;;;;;;5133873;27;20401;-73
2023/05/03 03:30:44;;;;;;;10.55;6.28;;;8.00;99.90;;;;;;5132010;27;20072;-73
2023/05/03 03:33:10;;;;;;;9.52;6.82;;;8.00;99.90;;;;;;5132115;27;20072;-73
2023/05/03 03:35:37;;;;;;;9.30;6.97;;;8.00;99.90;;;;;;5133582;27;20049;-73
2023/05/03 03:38:03;;;;;;;11.23;6.80;;;8.00;99.90;;;;;;5133304;27;20474;-72
2023/05/03 03:40:29;;;;;;;9.70;7.40;;;8.00;99.90;;;;;;5132941;27;20023;-72
2023/05/03 03:42:54;;;;;;;14.35;7.65;;;7.90;99.90;;;;;;5128640;27;20011;-73
2023/05/03 03:45:20;;;;;;;10.07;6.93;;;7.90;99.90;;;;;;5127294;27;20020;-73
2023/05/03 03:47:46;;;;;;;14.82;7.70;;;7.90;99.90;;;;;;5133086;27;20054;-72
2023/05/03 03:50:12;;;;;;;12.20;7.93;;;7.90;99.90;;;;;;5133121;27;20023;-73
2023/05/03 03:52:37;;;;;;;8.45;6.40;;;7.90;99.90;;;;;;5131772;27;20035;-73
2023/05/03 03:55:03;;;;;;;10.68;7.05;;;7.90;99.90;;;;;;5133162;27;20083;-73
2023/05/03 03:57:30;;;;;;;12.90;6.80;;;7.80;99.90;;;;;;5132540;27;20369;-72
2023/05/03 03:59:58;;;;;;;12.07;7.38;;;7.80;99.90;;;;;;5133259;27;20041;-72
2023/05/03 04:02:25;;;;;;;9.52;6.47;;;7.80;99.90;;;;;;5132641;27;20031;-73
2023/05/03 04:04:50;;;;;;;10.82;6.63;;;7.70;99.90;;;;;;5132395;27;20023;-72
2023/05/03 04:07:16;;;;;;;10.02;7.60;;;7.80;99.90;;;;;;5122553;27;20020;-72
2023/05/03 04:09:42;;;;;;;15.98;6.93;;;7.80;99.90;;;;;;5119790;27;20090;-72
2023/05/03 04:12:08;;;;;;;11.23;7.07;;;7.80;99.90;;;;;;5129096;27;20376;-72
2023/05/03 04:14:33;;;;;;;13.85;7.22;;;7.80;99.90;;;;;;5126837;27;20035;-73
2023/05/03 04:17:00;;;;;;;13.32;6.85;;;7.80;99.90;;;;;;5131496;27;20079;-73
2023/05/03 04:19:26;;;;;;;10.63;6.82;;;7.80;99.90;;;;;;5132303;27;20019;-73
2023/05/03 04:21:51;;;;;;;11.18;6.60;;;7.80;99.90;;;;;;5129011;28;20026;-73
2023/05/03 04:24:17;;;;;;;21.17;6.82;;;7.80;99.90;;;;;;5131333;27;20486;-72
2023/05/03 04:26:44;;;;;;;9.98;6.80;;;7.80;99.90;;;;;;5129375;27;20069;-73
2023/05/03 04:29:13;;;;;;;14.68;6.60;;;7.80;99.90;;;;;;5114026;28;20391;-73
2023/05/03 04:31:39;;;;;;;13.80;7.13;;;7.80;99.90;;;;;;5128052;28;20019;-72
2023/05/03 04:34:05;;;;;;;14.43;7.63;;;7.80;99.90;;;;;;5128033;27;20514;-72
2023/05/03 04:36:31;;;;;;;13.15;7.55;;;7.80;99.90;;;;;;5117377;28;20106;-72
2023/05/03 04:38:57;;;;;;;11.63;7.70;;;7.80;99.90;;;;;;5120216;28;20091;-72
2023/05/03 04:41:23;;;;;;;10.07;6.63;;;7.80;99.90;;;;;;5119246;27;20030;-72
2023/05/03 04:43:49;;;;;;;15.23;7.50;;;7.70;99.90;;;;;;5123031;27;20034;-72
2023/05/03 04:46:16;;;;;;;12.40;7.72;;;7.80;99.90;;;;;;5115101;28;20372;-72
2023/05/03 04:48:41;;;;;;;13.45;8.07;;;7.70;99.90;;;;;;5125580;27;20023;-72
2023/05/03 04:51:07;;;;;;;11.25;7.40;;;7.70;99.90;;;;;;5135113;27;20020;-72
2023/05/03 04:53:33;;;;;;;12.38;8.13;;;7.70;99.90;;;;;;5134808;27;20050;-73
2023/05/03 04:55:58;;;;;;;12.57;6.72;;;7.70;99.90;;;;;;5120019;27;20034;-73
2023/05/03 04:58:24;;;;;;;10.43;7.45;;;7.70;99.90;;;;;;5123416;27;20539;-73
2023/05/03 05:00:50;;;;;;;11.30;8.20;;;7.70;99.90;;;;;;5121856;27;20409;-72
2023/05/03 05:03:16;;;;;;;12.77;7.18;;;7.70;99.90;;;;;;5120925;27;20050;-72
2023/05/03 05:05:42;;;;;;;11.63;7.53;;;7.70;99.90;;;;;;5135239;27;20501;-72
2023/05/03 05:08:07;;;;;;;12.32;7.38;;;7.70;99.90;;;;;;5133190;27;20016;-72
2023/05/03 05:10:42;;;;;;;9.65;7.50;;;7.80;99.90;;;;;;5134145;27;20390;-73
2023/05/03 05:13:08;;;;;;;14.65;7.55;;;7.80;99.90;;;;;;5128718;27;20506;-73
2023/05/03 05:15:34;;;;;;;13.93;7.43;;;7.80;99.90;;;;;;5124447;27;20040;-72
2023/05/03 05:18:00;;;;;;;20.38;9.15;;;7.80;99.90;;;;;;5135826;27;20023;-73
2023/05/03 05:20:26;;;;;;;12.43;7.85;;;7.80;99.90;;;;;;5134641;27;20140;-72
2023/05/03 05:22:51;;;;;;;13.57;7.75;;;7.90;99.90;;;;;;5134103;27;20744;-72
2023/05/03 05:25:17;;;;;;;12.45;7.80;;;7.90;99.90;;;;;;5135260;27;20031;-72
2023/05/03 05:27:43;;;;;;;10.98;8.07;;;7.90;99.90;;;;;;5135386;27;20479;-72
2023/05/03 05:30:09;;;;;;;10.43;7.82;;;8.00;99.90;;;;;;5135826;27;20012;-72
2023/05/03 05:32:35;;;;;;;11.57;8.45;;;8.00;99.90;;;;;;5135706;27;20019;-73
2023/05/03 05:35:01;;;;;;;11.35;7.90;;;8.00;99.90;;;;;;5131913;27;20035;-73
2023/05/03 05:37:26;;;;;;;15.57;8.18;;;8.10;99.90;;;;;;5134361;27;20083;-73
2023/05/03 05:39:54;;;;;;;13.20;8.43;;;8.10;99.90;;;;;;5134537;27;20031;-72
2023/05/03 05:42:20;;;;;;;11.35;8.52;;;8.10;99.90;;;;;;5135497;27;20076;-72
2023/05/03 05:44:46;;;;;;;11.93;7.10;;;8.10;99.90;;;;;;5135076;27;20027;-73
2023/05/03 05:47:11;;;;;;;13.93;7.80;;;8.20;99.90;;;;;;5135224;27;20023;-72
2023/05/03 05:49:37;;;;;;;9.80;7.28;;;8.30;99.90;;;;;;5131266;27;20047;-73
2023/05/03 05:52:03;;;;;;;14.98;7.50;;;8.20;99.90;;;;;;5126159;27;20023;-70
2023/05/03 05:54:29;;;;;;;13.63;9.23;;;8.10;99.90;;;;;;5130983;27;20483;-73
2023/05/03 05:56:54;;;;;;;15.88;9.50;;;8.10;99.90;;;;;;5134882;27;20023;-70
2023/05/03 05:59:20;;;;;;;13.55;8.75;;;8.10;99.90;;;;;;5134438;27;20027;-70
2023/05/03 06:01:46;;;;;;;15.50;8.65;;;8.10;99.90;;;;;;5133967;27;20023;-70
2023/05/03 06:04:13;;;;;;;12.30;8.32;;;8.20;99.90;;;;;;5134926;27;20020;-70
2023/05/03 06:06:39;;;;;;;18.25;9.70;;;8.20;99.90;;;;;;5133826;27;20071;-70
2023/05/03 06:09:05;;;;;;;14.43;9.27;;;8.20;99.90;;;;;;5134355;27;20484;-70
2023/05/03 06:11:32;;;;;;;17.08;9.10;;;8.20;99.90;;;;;;5135298;27;20038;-71
2023/05/03 06:13:58;;;;;;;14.32;8.57;;;8.30;99.90;;;;;;5118068;27;20131;-70
2023/05/03 06:16:24;;;;;;;11.35;8.90;;;8.20;99.90;;;;;;5130838;27;20488;-70
2023/05/03 06:18:50;;;;;;;15.80;9.27;;;8.30;99.90;;;;;;5135133;27;20460;-70
2023/05/03 06:21:15;;;;;;;13.10;8.93;;;8.40;99.90;;;;;;5122544;27;20481;-70
2023/05/03 06:23:41;;;;;;;12.50;8.65;;;8.40;99.90;;;;;;5129046;27;20032;-70
2023/05/03 06:26:07;;;;;;;12.50;8.82;;;8.50;99.90;;;;;;5119736;27;20022;-70
2023/05/03 06:28:34;;;;;;;11.52;7.97;;;8.50;99.90;;;;;;5134989;27;20630;-69
2023/05/03 06:31:01;;;;;;;13.45;8.05;;;8.50;99.90;;;;;;5123803;27;20012;-70
2023/05/03 06:33:27;;;;;;;12.07;6.82;;;8.60;99.90;;;;;;5122094;27;20035;-71
2023/05/03 06:35:53;;;;;;;16.17;8.20;;;8.60;99.90;;;;;;5129556;27;20020;-69
2023/05/03 06:38:19;;;;;;;12.30;7.38;;;8.60;99.90;;;;;;5134714;27;20103;-70
2023/05/03 06:40:45;;;;;;;14.93;8.27;;;8.70;99.90;;;;;;5127044;27;20408;-70
2023/05/03 06:43:11;;;;;;;13.80;8.02;;;8.70;99.90;;;;;;5128274;27;20586;-71
2023/05/03 06:45:38;;;;;;;11.70;7.50;;;9.00;99.90;;;;;;5133893;27;20023;-70
2023/05/03 06:48:05;;;;;;;15.65;8.32;;;9.10;99.90;;;;;;5118203;27;20051;-70
2023/05/03 06:50:31;;;;;;;17.95;8.43;;;9.10;99.90;;;;;;5134674;27;20341;-70
2023/05/03 06:52:56;;;;;;;10.93;7.28;;;9.20;99.90;;;;;;5135039;27;20060;-70
2023/05/03 06:55:22;;;;;;;12.70;8.05;;;9.30;99.90;;;;;;5134298;27;20483;-71
2023/05/03 06:57:48;;;;;;;11.57;7.55;;;9.40;99.90;;;;;;5134115;27;20027;-70
2023/05/03 07:00:14;;;;;;;12.27;8.18;;;9.60;99.90;;;;;;5134195;27;20023;-70
2023/05/03 07:02:40;;;;;;;10.15;7.25;;;9.80;99.90;;;;;;5134591;27;20020;-69
2023/05/03 07:05:07;;;;;;;16.65;7.75;;;9.70;99.90;;;;;;5131535;27;20458;-70
2023/05/03 07:07:33;;;;;;;12.60;7.70;;;9.70;99.90;;;;;;5133766;27;20015;-70
2023/05/03 07:09:59;;;;;;;11.10;7.40;;;9.80;99.90;;;;;;5132593;27;20023;-70
2023/05/03 07:12:27;;;;;;;13.73;7.82;;;10.00;99.90;;;;;;5134134;27;20395;-71
2023/05/03 07:14:54;;;;;;;10.20;7.20;;;10.00;99.90;;;;;;5124107;27;20027;-71
2023/05/03 07:17:20;;;;;;;16.13;7.70;;;10.10;99.90;;;;;;5125864;27;20364;-70
2023/05/03 07:19:47;;;;;;;11.68;7.10;;;10.20;99.90;;;;;;5122360;27;20020;-70
2023/05/03 07:22:14;;;;;;;11.32;7.25;;;10.40;99.90;;;;;;5130299;27;20026;-70
2023/05/03 07:24:39;;;;;;;10.77;7.45;;;10.60;99.90;;;;;;5134032;27;20019;-71
2023/05/03 07:27:05;;;;;;;13.73;6.10;;;10.70;99.90;;;;;;5130758;27;20031;-71
2023/05/03 07:29:31;;;;;;;12.45;6.45;;;10.70;99.90;;;;;;5130882;27;20150;-70
2023/05/03 07:31:57;;;;;;;12.50;6.65;;;10.80;99.90;;;;;;5132483;27;20023;-70
2023/05/03 07:34:23;;;;;;;13.50;6.65;;;10.90;99.90;;;;;;5114153;27;20043;-72
2023/05/03 07:36:50;;;;;;;9.55;7.30;;;11.10;99.90;;;;;;5132469;27;20015;-70
2023/05/03 07:39:16;;;;;;;15.02;7.75;;;11.20;99.90;;;;;;5131032;27;20023;-70
2023/05/03 07:41:42;;;;;;;11.13;6.78;;;11.30;99.90;;;;;;5132522;27;20072;-70
2023/05/03 07:44:08;;;;;;;8.95;6.38;;;11.40;99.90;;;;;;5131154;27;20072;-70
2023/05/03 07:46:34;;;;;;;15.10;6.95;;;11.60;99.90;;;;;;5131318;27;20019;-70
2023/05/03 07:49:03;;;;;;;7.93;6.38;;;11.70;99.90;;;;;;5116803;27;20481;-71
2023/05/03 07:51:34;;;;;;;9.98;7.80;;;11.70;99.90;;;;;;5131894;27;20058;-70
2023/05/03 07:54:00;;;;;;;12.45;7.15;;;11.80;99.90;;;;;;5132453;27;20031;-70
2023/05/03 07:56:29;;;;;;;12.38;7.07;;;11.90;99.90;;;;;;5131059;27;20031;-71
2023/05/03 07:58:55;;;;;;;12.98;6.95;;;12.10;99.90;;;;;;5128218;27;20020;-70
2023/05/03 08:01:20;;;;;;;15.48;7.82;;;12.20;99.90;;;;;;5129357;27;20522;-70
2023/05/03 08:03:49;;;;;;;11.85;7.70;;;12.20;99.90;;;;;;5132956;27;20015;-70
2023/05/03 08:06:15;;;;;;;11.82;7.80;;;12.50;99.90;;;;;;5132138;27;20460;-70
2023/05/03 08:08:41;;;;;;;11.90;7.20;;;12.60;99.90;;;;;;5124975;27;20023;-70
2023/05/03 08:11:07;;;;;;;11.98;7.60;;;12.70;99.90;;;;;;5132152;27;20019;-70
2023/05/03 08:13:33;;;;;;;13.10;7.78;;;12.70;99.90;;;;;;5132252;27;20027;-70
2023/05/03 08:15:59;;;;;;;12.80;7.57;;;12.90;99.90;;;;;;5132456;27;20031;-70
2023/05/03 08:18:25;;;;;;;13.00;7.95;;;12.90;99.90;;;;;;5132126;27;20098;-71
2023/05/03 08:20:51;;;;;;;18.00;7.50;;;13.10;99.90;;;;;;5131869;27;20015;-71
2023/05/03 08:23:18;;;;;;;9.00;7.15;;;13.00;99.90;;;;;;5132612;27;20026;-69
2023/05/03 08:25:44;;;;;;;12.93;7.00;;;13.20;99.90;;;;;;5130975;28;20027;-71
2023/05/03 08:28:10;;;;;;;11.82;7.90;;;13.30;99.90;;;;;;5132538;27;20371;-70
2023/05/03 08:30:36;;;;;;;11.20;6.90;;;13.40;99.90;;;;;;5115424;27;20068;-70
2023/05/03 08:33:02;;;;;;;12.10;7.00;;;13.70;99.90;;;;;;5117218;27;20015;-73
2023/05/03 08:35:28;;;;;;;11.70;6.95;;;13.80;99.90;;;;;;5112661;28;20134;-69
2023/05/03 08:37:54;;;;;;;11.10;6.93;;;14.00;99.90;;;;;;5125566;28;20441;-69
2023/05/03 08:40:21;;;;;;;10.98;8.18;;;14.00;99.90;;;;;;5131379;27;20674;-70
2023/05/03 08:42:48;;;;;;;8.90;6.97;;;14.00;99.90;;;;;;5130522;27;20015;-69
2023/05/03 08:45:15;;;;;;;11.25;7.55;;;14.30;99.90;;;;;;5131917;27;20031;-69
2023/05/03 08:47:43;;;;;;;11.35;6.70;;;14.40;99.90;;;;;;5130952;27;20103;-69
2023/05/03 08:50:14;;;;;;;9.70;6.55;;;14.30;99.90;;;;;;5128682;27;20348;-70
2023/05/03 08:52:41;;;;;;;10.40;6.60;;;14.30;99.90;;;;;;5126335;28;20031;-69
2023/05/03 08:55:08;;;;;;;13.95;7.13;;;14.50;99.90;;;;;;5131324;27;20054;-70
2023/05/03 08:57:35;;;;;;;9.80;6.35;;;14.50;99.90;;;;;;5127623;27;20035;-70
2023/05/03 09:00:04;;;;;;;9.57;5.95;;;14.90;99.90;;;;;;5131822;27;20031;-70
2023/05/03 09:02:33;;;;;;;10.80;6.15;;;14.80;99.90;;;;;;5129989;28;20026;-70
2023/05/03 09:04:59;;;;;;;11.25;6.50;;;14.80;99.90;;;;;;5099457;27;20068;-71
2023/05/03 09:07:25;;;;;;;10.15;6.65;;;15.10;99.90;;;;;;5120578;28;20023;-70
2023/05/03 09:09:52;;;;;;;13.73;7.07;;;15.10;99.90;;;;;;5120110;28;20035;-71
2023/05/03 09:12:39;;;;;;;9.02;6.68;;;15.30;99.90;;;;;;5122055;27;20073;-70
2023/05/03 09:15:06;;;;;;;9.52;6.72;;;15.10;99.90;;;;;;5120515;27;20027;-70
2023/05/03 09:17:32;;;;;;;7.95;6.38;;;15.30;99.90;;;;;;5122529;27;20456;-69
2023/05/03 09:19:59;;;;;;;7.70;6.28;;;15.30;99.90;;;;;;5120559;27;20015;-69
2023/05/03 09:22:27;;;;;;;7.40;6.60;;;15.60;99.90;;;;;;5120655;27;20027;-69
2023/05/03 09:24:54;;;;;;;12.50;6.43;;;15.70;99.90;;;;;;5120712;28;20028;-69
2023/05/03 09:27:20;;;;;;;11.35;6.55;;;15.70;99.90;;;;;;5121289;27;20087;-70
2023/05/03 09:29:47;;;;;;;11.27;6.47;;;15.90;99.90;;;;;;5123161;27;20027;-70
2023/05/03 09:32:13;;;;;;;8.95;5.97;;;16.00;99.90;;;;;;5121448;27;20046;-69
2023/05/03 09:34:39;;;;;;;10.05;5.57;;;16.00;99.90;;;;;;5123136;27;20364;-70
2023/05/03 09:37:05;;;;;;;6.63;5.25;;;16.20;99.90;;;;;;5125446;27;20572;-70
2023/05/03 09:39:31;;;;;;;10.02;5.97;;;16.50;99.90;;;;;;5124709;27;20663;-69
2023/05/03 09:41:57;;;;;;;7.50;6.00;;;16.60;99.90;;;;;;5126015;27;20368;-70
2023/05/03 09:44:47;;;;;;;9.23;6.10;;;16.60;99.90;;;;;;5125033;27;20103;-70
2023/05/03 09:47:14;;;;;;;7.15;5.38;;;16.80;99.90;;;;;;5125863;27;20028;-70
2023/05/03 09:49:40;;;;;;;6.47;5.18;;;17.10;99.90;;;;;;5121883;27;20110;-70
2023/05/03 09:52:07;;;;;;;10.88;6.22;;;17.30;99.90;;;;;;5125816;27;20102;-70
2023/05/03 09:54:36;;;;;;;12.82;6.13;;;17.20;99.90;;;;;;5122438;27;20031;-69
2023/05/03 09:57:04;;;;;;;13.00;6.15;;;17.00;99.90;;;;;;5123858;27;20099;-70
2023/05/03 09:59:35;;;;;;;10.30;6.38;;;17.00;99.90;;;;;;5123651;27;20064;-70
2023/05/03 10:02:03;;;;;;;8.13;5.72;;;17.10;99.90;;;;;;5124266;27;20019;-70
2023/05/03 10:04:42;;;;;;;8.60;5.80;;;17.10;99.90;;;;;;5125066;27;20076;-69
2023/05/03 10:07:16;;;;;;;11.88;5.53;;;17.00;99.90;;;;;;5123534;27;20074;-69
2023/05/03 10:09:44;;;;;;;10.02;5.85;;;17.40;99.90;;;;;;5124463;27;20008;-70
2023/05/03 10:12:11;;;;;;;11.10;5.50;;;17.10;99.90;;;;;;5123963;27;20077;-71
2023/05/03 10:14:41;;;;;;;9.55;5.40;;;17.20;99.90;;;;;;5125325;27;20046;-70
2023/05/03 10:17:30;;;;;;;9.35;5.15;;;17.50;99.90;;;;;;5121413;27;20029;-69
2023/05/03 10:20:08;;;;;;;7.47;4.88;;;17.40;99.90;;;;;;5123082;27;20067;-70
2023/05/03 10:23:03;;;;;;;9.10;5.93;;;17.70;99.90;;;;;;5124126;27;20095;-70
2023/05/03 10:25:29;;;;;;;8.23;6.13;;;17.60;99.90;;;;;;5117829;27;20039;-70
2023/05/03 10:28:07;;;;;;;12.15;7.05;;;17.40;99.90;;;;;;5126853;27;20031;-70
2023/05/03 10:30:37;;;;;;;9.23;5.78;;;17.70;99.90;;;;;;5123695;27;20032;-70
2023/05/03 10:33:11;;;;;;;6.90;5.68;;;17.70;99.90;;;;;;5123494;27;20046;-70
2023/05/03 10:35:42;;;;;;;13.48;7.25;;;17.80;99.90;;;;;;5123897;27;20395;-69
2023/05/03 10:38:20;;;;;;;10.15;6.68;;;17.60;99.90;;;;;;5125240;27;20471;-71
2023/05/03 10:40:46;;;;;;;10.77;7.10;;;17.90;99.90;;;;;;5123665;27;20510;-70
2023/05/03 10:43:30;;;;;;;7.97;6.20;;;18.00;99.90;;;;;;5122330;27;20023;-70
2023/05/03 10:45:56;;;;;;;11.77;6.85;;;17.60;99.90;;;;;;5123028;27;20501;-70
2023/05/03 10:48:22;;;;;;;9.88;6.50;;;17.70;99.90;;;;;;5121871;27;20026;-67
2023/05/03 10:50:48;;;;;;;11.80;6.82;;;18.00;99.90;;;;;;5121918;27;20142;-66
2023/05/03 10:53:39;;;;;;;9.88;7.32;;;18.10;99.90;;;;;;5123437;27;20088;-67
2023/05/03 10:56:14;;;;;;;9.70;7.20;;;17.90;99.90;;;;;;5119615;27;20114;-67
2023/05/03 10:58:47;;;;;;;12.20;8.00;;;18.20;99.90;;;;;;5121850;27;20014;-67
2023/05/03 11:01:16;;;;;;;11.43;7.50;;;18.40;99.90;;;;;;5120906;27;20023;-67
2023/05/03 11:03:59;;;;;;;10.30;7.13;;;18.60;99.90;;;;;;5115783;27;20023;-67
2023/05/03 11:06:32;;;;;;;10.25;7.70;;;18.70;99.70;;;;;;5119559;27;20019;-68
2023/05/03 11:08:58;;;;;;;13.07;7.35;;;18.80;99.20;;;;;;5123714;27;20543;-68
2023/05/03 11:11:24;;;;;;;11.25;7.70;;;18.90;99.90;;;;;;5126100;27;20375;-67
2023/05/03 11:13:51;;;;;;;11.35;8.10;;;18.70;99.00;;;;;;5117997;27;20527;-68
2023/05/03 11:16:17;;;;;;;10.02;7.35;;;18.70;99.90;;;;;;5120100;27;20501;-67
2023/05/03 11:18:44;;;;;;;8.60;7.70;;;18.70;99.90;;;;;;5115857;27;20042;-68
2023/05/03 11:21:10;;;;;;;13.25;7.70;;;18.90;99.60;;;;;;5122559;27;20115;-69
2023/05/03 11:23:38;;;;;;;13.88;7.95;;;19.10;99.40;;;;;;5120891;27;20467;-68
2023/05/03 11:26:10;;;;;;;10.93;8.23;;;19.20;99.90;;;;;;5118146;27;20032;-69
2023/05/03 11:28:40;;;;;;;;;;;19.10;99.70;;;;;;5119291;27;20031;-68
2023/05/03 11:31:06;;;;;;;11.73;7.88;;;19.00;99.90;;;;;;5115499;27;19919;-68
2023/05/03 11:33:36;;;;;;;9.90;7.50;;;19.10;99.90;;;;;;5120847;27;20046;-69
2023/05/03 11:36:02;;;;;;;9.88;6.72;;;19.30;99.30;;;;;;5121976;27;20566;-69
2023/05/03 11:38:32;;;;;;;11.05;6.88;;;19.30;99.20;;;;;;5118978;27;20020;-68
2023/05/03 11:40:59;;;;;;;10.80;6.88;;;19.10;97.30;;;;;;5119267;27;20027;-68
2023/05/03 11:43:25;;;;;;;10.40;7.28;;;19.00;97.80;;;;;;5115468;27;20039;-68
2023/05/03 11:45:57;;;;;;;12.63;7.30;;;19.00;99.40;;;;;;5120164;27;23028;-68
2023/05/03 11:48:24;;;;;;;9.90;6.35;;;18.90;98.50;;;;;;5117716;27;20038;-69
2023/05/03 11:50:56;;;;;;;11.80;6.22;;;19.00;99.90;;;;;;5120324;27;20031;-68
2023/05/03 11:53:25;;;;;;;9.65;6.28;;;18.90;97.60;;;;;;5122730;27;20027;-69
2023/05/03 11:55:53;;;;;;;9.82;6.55;;;18.90;97.80;;;;;;5121059;27;20035;-69
2023/05/03 11:58:25;;;;;;;8.48;6.53;;;19.00;97.80;;;;;;5121381;27;20106;-68
2023/05/03 12:00:52;;;;;;;10.70;6.57;;;19.20;97.00;;;;;;5118822;27;20608;-68
2023/05/03 12:03:27;;;;;;;11.32;7.05;;;19.10;98.20;;;;;;5120980;27;20495;-68
2023/05/03 12:05:54;;;;;;;11.25;6.85;;;19.10;97.80;;;;;;5115654;27;20031;-69
2023/05/03 12:08:21;;;;;;;10.55;7.00;;;19.20;98.10;;;;;;5118029;27;20027;-68
2023/05/03 12:10:49;;;;;;;10.75;6.75;;;19.40;97.90;;;;;;5118438;27;20038;-68
2023/05/03 12:13:36;;;;;;;8.50;5.70;;;19.50;98.10;;;;;;5116573;27;20510;-69
2023/05/03 12:16:03;;;;;;;12.60;8.00;;;19.70;99.90;;;;;;5119252;27;20032;-69
2023/05/03 12:18:48;;;;;;;8.90;6.20;;;19.60;98.30;;;;;;5116153;27;20015;-70
2023/05/03 12:21:14;;;;;;;8.65;5.53;;;19.50;97.00;;;;;;5117772;27;20026;-69
2023/05/03 12:23:41;;;;;;;8.13;6.22;;;19.70;98.00;;;;;;5121962;27;20031;-69
2023/05/03 12:26:07;;;;;;;11.45;6.65;;;19.80;98.70;;;;;;5121601;27;20065;-69
2023/05/03 12:28:33;;;;;;;7.22;6.10;;;19.70;97.70;;;;;;5116432;27;20043;-69
2023/05/03 12:30:59;;;;;;;7.75;5.78;;;19.60;97.00;;;;;;5119409;28;20552;-69
2023/05/03 12:33:25;;;;;;;15.27;6.88;;;20.10;99.50;;;;;;5119103;27;20694;-68
2023/05/03 12:35:51;;;;;;;8.95;6.60;;;19.90;97.30;;;;;;5119852;27;20038;-68
2023/05/03 12:38:16;;;;;;;13.05;6.03;;;20.10;96.80;;;;;;5117982;28;20019;-69
2023/05/03 12:40:43;;;;;;;10.23;6.18;;;20.10;98.40;;;;;;5116634;27;20039;-70
2023/05/03 12:43:10;;;;;;;11.10;6.88;;;20.00;97.40;;;;;;5120677;27;20467;-70
2023/05/03 12:45:35;;;;;;;10.80;6.13;;;20.00;96.10;;;;;;5118947;28;20393;-69
2023/05/03 12:48:02;;;;;;;7.22;5.40;;;19.80;93.50;;;;;;5116431;27;20047;-70